createdAt,value
2022-08-25T00:01:54.243Z,97.56
2022-08-25T00:04:24.798Z,99.35
2022-08-25T00:06:53.580Z,97.61
2022-08-25T00:09:22.753Z,96.92
2022-08-25T00:11:50.030Z,97.09
2022-08-25T00:14:23.691Z,96.99
2022-08-25T00:16:50.423Z,98.08
2022-08-25T00:19:19.796Z,98.89
2022-08-25T00:21:47.177Z,99.69
2022-08-25T00:24:16.763Z,98.94
2022-08-25T00:26:49.111Z,98.26
2022-08-25T00:29:15.960Z,98.13
2022-08-25T00:31:44.623Z,97.13
2022-08-25T00:34:18.117Z,98.46
2022-08-25T00:36:45.524Z,98.83
2022-08-25T00:39:12.058Z,99.97
2022-08-25T00:41:41.789Z,98.36
2022-08-25T00:44:10.952Z,98.87
2022-08-25T00:46:44.769Z,98.79
2022-08-25T00:49:25.379Z,98.74
2022-08-25T00:52:03.006Z,100.00
2022-08-25T00:54:41.013Z,98.63
2022-08-25T00:57:10.941Z,100.00
2022-08-25T00:59:37.660Z,98.13
2022-08-25T01:02:05.917Z,100.00
2022-08-25T01:04:34.909Z,100.00
2022-08-25T01:07:02.411Z,100.00
2022-08-25T01:09:32.593Z,100.00
2022-08-25T01:12:00.335Z,100.00
2022-08-25T01:14:28.964Z,99.70
2022-08-25T01:16:55.488Z,99.30
2022-08-25T01:19:22.047Z,100.00
2022-08-25T01:21:51.719Z,99.34
2022-08-25T01:24:47.018Z,98.67
2022-08-25T01:27:13.714Z,100.00
2022-08-25T01:29:40.297Z,98.82
2022-08-25T01:32:12.094Z,99.16
2022-08-25T01:34:41.543Z,99.01
2022-08-25T01:37:09.609Z,98.38
2022-08-25T01:39:40.942Z,100.00
2022-08-25T01:42:09.077Z,99.37
2022-08-25T01:44:38.580Z,100.00
2022-08-25T01:47:06.345Z,98.48
2022-08-25T01:49:33.250Z,96.73
2022-08-25T01:52:07.416Z,97.06
2022-08-25T01:54:34.076Z,100.00
2022-08-25T01:57:00.596Z,99.19
2022-08-25T01:59:27.638Z,98.53
2022-08-25T02:01:59.552Z,99.87
2022-08-25T02:04:29.523Z,98.13
2022-08-25T02:06:56.183Z,98.47
2022-08-25T02:09:23.031Z,97.50
2022-08-25T02:11:49.482Z,100.00
2022-08-25T02:14:20.711Z,100.00
2022-08-25T02:16:50.992Z,100.00
2022-08-25T02:19:18.900Z,100.00
2022-08-25T02:21:45.967Z,99.61
2022-08-25T02:24:13.781Z,99.75
2022-08-25T02:26:41.487Z,99.07
2022-08-25T02:29:11.207Z,98.38
2022-08-25T02:31:39.231Z,100.00
2022-08-25T02:34:07.666Z,100.00
2022-08-25T02:36:34.330Z,99.43
2022-08-25T02:39:01.136Z,99.18
2022-08-25T02:41:31.134Z,99.69
2022-08-25T02:43:59.270Z,100.00
2022-08-25T02:46:25.867Z,100.00
2022-08-25T02:48:53.406Z,97.91
2022-08-25T02:51:28.625Z,98.08
2022-08-25T02:53:55.103Z,100.00
2022-08-25T02:56:22.102Z,100.00
2022-08-25T02:58:48.693Z,100.00
2022-08-25T03:01:16.661Z,100.00
2022-08-25T03:03:45.690Z,100.00
2022-08-25T03:06:14.737Z,100.00
2022-08-25T03:08:42.200Z,100.00
2022-08-25T03:11:09.427Z,100.00
2022-08-25T03:13:36.374Z,100.00
2022-08-25T03:16:04.574Z,100.00
2022-08-25T03:18:31.565Z,99.39
2022-08-25T03:20:59.490Z,98.68
2022-08-25T03:23:26.802Z,98.32
2022-08-25T03:26:15.068Z,99.13
2022-08-25T03:28:41.810Z,100.00
2022-08-25T03:31:08.912Z,100.00
2022-08-25T03:33:36.996Z,100.00
2022-08-25T03:36:05.543Z,100.00
2022-08-25T03:38:32.390Z,100.00
2022-08-25T03:40:58.835Z,100.00
2022-08-25T03:43:25.431Z,100.00
2022-08-25T03:46:22.311Z,100.00
2022-08-25T03:49:26.662Z,100.00
2022-08-25T03:52:22.735Z,100.00
2022-08-25T03:54:57.573Z,100.00
2022-08-25T03:57:29.166Z,100.00
2022-08-25T04:00:12.159Z,100.00
2022-08-25T04:02:47.666Z,100.00
2022-08-25T04:05:36.931Z,100.00
2022-08-25T04:11:21.340Z,100.00
2022-08-25T04:14:19.698Z,100.00
2022-08-25T04:17:01.911Z,100.00
2022-08-25T04:19:52.280Z,100.00
2022-08-25T04:22:29.924Z,100.00
2022-08-25T04:31:24.440Z,100.00
2022-08-25T04:37:28.020Z,100.00
2022-08-25T04:40:00.571Z,100.00
2022-08-25T05:45:48.828Z,100.00
2022-08-25T05:48:15.766Z,100.00
2022-08-25T05:51:10.925Z,100.00
2022-08-25T06:05:20.470Z,100.00
2022-08-25T06:32:36.708Z,100.00
2022-08-25T07:02:14.061Z,100.00
2022-08-25T07:04:48.310Z,100.00
2022-08-25T07:07:15.078Z,100.00
2022-08-25T07:09:42.100Z,100.00
2022-08-25T07:12:11.906Z,100.00
2022-08-25T07:14:42.493Z,100.00
2022-08-25T07:17:23.674Z,100.00
2022-08-25T07:19:51.668Z,100.00
2022-08-25T07:22:25.829Z,100.00
2022-08-25T07:24:52.551Z,100.00
2022-08-25T07:27:26.897Z,100.00
2022-08-25T07:29:54.292Z,100.00
2022-08-25T07:32:36.226Z,100.00
2022-08-25T07:35:43.760Z,100.00
2022-08-25T07:38:09.177Z,100.00
2022-08-25T07:40:42.926Z,100.00
2022-08-25T07:43:10.569Z,100.00
2022-08-25T07:48:56.707Z,100.00
2022-08-25T07:51:38.893Z,100.00
2022-08-25T07:55:11.039Z,97.79
2022-08-25T07:58:12.358Z,98.24
2022-08-25T08:05:11.285Z,98.80
2022-08-25T08:11:05.498Z,97.75
2022-08-25T08:14:44.981Z,95.79
2022-08-25T08:17:42.391Z,99.26
2022-08-25T08:21:25.097Z,95.28
2022-08-25T08:24:10.740Z,98.12
2022-08-25T08:26:59.364Z,98.87
2022-08-25T08:29:48.302Z,96.16
2022-08-25T08:39:17.634Z,93.27
2022-08-25T08:46:11.790Z,92.96
2022-08-25T08:49:26.749Z,93.96
2022-08-25T08:52:24.399Z,93.47
2022-08-25T08:55:21.399Z,91.96
2022-08-25T08:57:52.037Z,92.74
2022-08-25T09:00:25.817Z,90.84
2022-08-25T09:03:31.279Z,90.11
2022-08-25T09:06:06.917Z,91.89
2022-08-25T09:08:33.904Z,90.62
2022-08-25T09:11:16.522Z,88.00
2022-08-25T09:15:00.300Z,87.85
2022-08-25T09:17:44.588Z,89.61
2022-08-25T09:20:35.886Z,88.40
2022-08-25T09:23:36.688Z,87.27
2022-08-25T09:26:36.497Z,88.93
2022-08-25T09:29:19.432Z,86.53
2022-08-25T09:35:57.782Z,86.26
2022-08-25T09:38:28.111Z,84.65
2022-08-25T09:41:41.468Z,84.54
2022-08-25T09:44:34.131Z,85.53
2022-08-25T09:47:23.512Z,84.40
2022-08-25T09:50:28.881Z,87.49
2022-08-25T09:53:04.335Z,86.65
2022-08-25T09:56:12.907Z,84.48
2022-08-25T09:58:39.528Z,85.33
2022-08-25T10:01:18.844Z,86.64
2022-08-25T10:04:00.111Z,86.11
2022-08-25T10:06:32.784Z,85.01
2022-08-25T10:09:07.839Z,82.71
2022-08-25T10:12:16.065Z,83.97
2022-08-25T10:14:44.411Z,84.39
2022-08-25T10:17:27.730Z,81.90
2022-08-25T10:20:17.465Z,84.70
2022-08-25T10:22:45.646Z,83.26
2022-08-25T10:25:21.976Z,82.53
2022-08-25T10:27:58.910Z,86.63
2022-08-25T10:30:36.221Z,83.45
2022-08-25T10:33:12.714Z,80.26
2022-08-25T10:35:49.680Z,79.30
2022-08-25T10:38:36.627Z,80.59
2022-08-25T10:42:13.093Z,74.64
2022-08-25T10:45:16.603Z,74.50
2022-08-25T10:48:13.533Z,76.74
2022-08-25T10:50:49.157Z,79.35
2022-08-25T10:53:19.254Z,77.61
2022-08-25T10:55:52.826Z,79.23
2022-08-25T10:58:32.277Z,77.97
2022-08-25T11:01:15.382Z,76.35
2022-08-25T11:03:51.171Z,78.57
2022-08-25T11:07:16.529Z,80.44
2022-08-25T11:16:58.051Z,76.92
2022-08-25T11:19:49.304Z,77.44
2022-08-25T11:22:29.081Z,73.15
2022-08-25T11:24:59.999Z,73.38
2022-08-25T11:27:53.286Z,74.71
2022-08-25T11:30:28.580Z,73.70
2022-08-25T11:32:56.497Z,74.21
2022-08-25T11:35:37.416Z,75.68
2022-08-25T11:38:16.708Z,75.89
2022-08-25T11:41:17.610Z,71.66
2022-08-25T11:43:53.445Z,72.67
2022-08-25T11:46:32.104Z,75.10
2022-08-25T11:49:44.456Z,75.42
2022-08-25T11:52:34.747Z,76.17
2022-08-25T12:02:52.482Z,74.91
2022-08-25T12:05:19.342Z,73.89
2022-08-25T12:08:22.696Z,71.41
2022-08-25T12:11:07.261Z,70.49
2022-08-25T12:14:16.746Z,73.33
2022-08-25T12:17:03.244Z,69.72
2022-08-25T12:19:35.879Z,70.65
2022-08-25T12:22:03.672Z,72.01
2022-08-25T12:24:47.629Z,71.52
2022-08-25T12:27:33.858Z,72.68
2022-08-25T12:30:15.586Z,71.78
2022-08-25T12:33:11.967Z,74.74
2022-08-25T12:35:57.955Z,69.20
2022-08-25T12:38:49.604Z,66.67
2022-08-25T12:41:24.191Z,66.75
2022-08-25T12:43:54.457Z,69.83
2022-08-25T12:46:21.067Z,69.61
2022-08-25T12:48:57.953Z,68.43
2022-08-25T12:51:28.803Z,66.55
2022-08-25T12:54:22.551Z,62.99
2022-08-25T13:01:00.932Z,63.23
2022-08-25T13:03:48.933Z,66.94
2022-08-25T13:06:26.778Z,64.64
2022-08-25T13:09:42.046Z,70.67
2022-08-25T13:12:25.567Z,67.88
2022-08-25T13:15:28.955Z,65.15
2022-08-25T13:18:12.475Z,66.33
2022-08-25T13:23:36.431Z,66.13
2022-08-25T13:33:33.381Z,61.44
2022-08-25T13:36:21.005Z,60.48
2022-08-25T13:38:51.227Z,64.20
2022-08-25T13:41:37.289Z,60.30
2022-08-25T13:44:07.297Z,61.08
2022-08-25T13:46:40.054Z,63.09
2022-08-25T13:49:09.326Z,63.86
2022-08-25T13:51:41.390Z,62.73
2022-08-25T13:54:36.021Z,61.98
2022-08-25T13:57:24.992Z,61.26
2022-08-25T14:00:00.275Z,60.91
2022-08-25T14:02:42.281Z,63.74
2022-08-25T14:05:32.386Z,64.64
2022-08-25T14:08:25.270Z,64.84
2022-08-25T14:11:08.078Z,66.87
2022-08-25T14:13:44.746Z,67.81
2022-08-25T14:16:14.299Z,66.15
2022-08-25T14:18:49.242Z,64.32
2022-08-25T14:21:19.624Z,61.21
2022-08-25T14:23:47.231Z,62.27
2022-08-25T14:26:18.634Z,57.15
2022-08-25T14:28:46.102Z,56.69
2022-08-25T14:31:16.639Z,60.00
2022-08-25T14:33:54.973Z,59.27
2022-08-25T14:36:21.688Z,61.04
2022-08-25T14:38:54.949Z,59.73
2022-08-25T14:41:23.840Z,56.71
2022-08-25T14:43:50.559Z,58.17
2022-08-25T14:46:33.502Z,60.61
2022-08-25T14:49:05.972Z,59.71
2022-08-25T14:51:33.987Z,59.23
2022-08-25T14:54:17.748Z,60.40
2022-08-25T14:56:49.800Z,62.17
2022-08-25T17:34:58.068Z,69.17
2022-08-25T17:37:30.897Z,69.46
2022-08-25T21:06:50.681Z,86.81
2022-08-25T21:09:26.166Z,87.71
2022-08-25T21:12:09.503Z,87.57
2022-08-25T21:14:48.354Z,87.76
2022-08-25T21:17:21.210Z,86.91
2022-08-25T21:20:14.518Z,86.27
2022-08-25T21:27:19.232Z,88.22
2022-08-25T21:29:31.118Z,88.04
2022-08-25T21:32:53.317Z,87.15
2022-08-25T21:35:22.437Z,88.54
2022-08-25T21:37:53.587Z,90.56
2022-08-25T21:40:28.475Z,91.99
2022-08-25T21:42:56.469Z,89.42
2022-08-25T21:45:23.254Z,89.80
2022-08-25T21:47:50.058Z,89.72
2022-08-25T21:50:19.191Z,88.66
2022-08-25T21:52:45.949Z,88.06
2022-08-25T21:55:16.094Z,89.19
2022-08-25T21:57:47.525Z,89.88
2022-08-25T22:00:15.124Z,90.53
2022-08-25T22:02:45.930Z,90.80
2022-08-25T22:05:12.826Z,89.74
2022-08-25T22:07:42.291Z,89.42
2022-08-25T22:10:15.910Z,90.42
2022-08-25T22:12:45.092Z,89.84
2022-08-25T22:15:12.478Z,89.25
2022-08-25T22:17:40.738Z,89.11
2022-08-25T22:20:08.795Z,88.97
2022-08-25T22:22:36.480Z,89.68
2022-08-25T22:25:03.987Z,89.85
2022-08-25T22:27:33.009Z,89.44
2022-08-25T22:30:02.884Z,88.45
2022-08-25T22:32:30.511Z,88.21
2022-08-25T22:34:57.178Z,87.82
2022-08-25T22:37:23.968Z,89.54
2022-08-25T22:39:50.830Z,89.68
2022-08-25T22:42:20.415Z,88.61
2022-08-25T22:44:53.931Z,89.46
2022-08-25T22:47:20.532Z,89.29
2022-08-25T22:49:47.217Z,88.88
2022-08-25T22:52:14.953Z,90.88
2022-08-25T22:54:42.035Z,91.01
2022-08-25T22:57:08.660Z,89.87
2022-08-25T22:59:35.106Z,89.90
2022-08-25T23:02:02.037Z,91.34
2022-08-25T23:04:31.321Z,90.94
2022-08-25T23:06:59.001Z,90.56
2022-08-25T23:09:25.694Z,91.06
2022-08-25T23:11:52.586Z,89.70
2022-08-25T23:14:20.183Z,88.96
2022-08-25T23:16:48.460Z,90.53
2022-08-25T23:19:16.942Z,90.29
2022-08-25T23:22:02.585Z,90.56
2022-08-25T23:24:30.867Z,90.42
2022-08-25T23:26:59.312Z,90.57
2022-08-25T23:29:26.342Z,91.30
2022-08-25T23:31:53.665Z,90.65
2022-08-25T23:34:22.751Z,91.26
2022-08-25T23:36:50.968Z,91.19
2022-08-25T23:39:18.134Z,91.76
2022-08-25T23:41:44.842Z,90.37
2022-08-25T23:44:17.006Z,90.49
2022-08-25T23:46:44.928Z,90.03
2022-08-25T23:49:12.391Z,89.80
2022-08-25T23:51:40.175Z,92.59
2022-08-25T23:54:10.864Z,91.11
2022-08-25T23:56:44.434Z,90.72
2022-08-25T23:59:11.820Z,90.60
